Terminal Aerodrome Forecast
Issued by NWS

Home | Current Version | Previous Version | Text Only | Print | Product List | Glossary On
Versions: 1 2 3 4 5 6 7 8 9 10 11 12 13 14 15 16 17 18 19 20 21 22 23 24 25 26 27 28 29 30 31 32 33 34 35
000
FTAK31 PANC 031501 AAA
TAFADU
TAF AMD
PADU 031501Z 0315/0412 10018G30KT P6SM -RA SCT007 OVC018
      TEMPO 0315/0319 5SM RA
     FM031900 09015G22KT 3SM -RA BR BKN007 OVC012
     FM040200 09009KT 4SM -RA BR SCT007 OVC012=

USA.gov is the U.S. government's official web portal to all federal, state and local government web resources and services.